Etusivu
METAR-TAF:

METAR-TAF

Lentoasemat :

Point Hope, Alaska, Yhdysvallat

Leveyspiiri: 68-21N, Pituuspiiri: 166-48W, korkeus merenpinnasta: 4 m

Tämänhetkinen sää

Tämä raportti tehtiin 1 tunti ja 4 minuuttia sitten, kello 13.56 UTC
Tuuli 8 kn lounaasta
Lämpötila -1°C
Kosteus 93%
Ilmanpaine 1010 hPa
Näkyvyys: 0.4 km
Pilvistä 200 ft:n korkeudessa
tuntematon, jäätävää sumua

METAR: PAPO 121356Z AUTO 23008KT 1/4SM UP FZFG OVC002 M01/M02 A2983 RMK AO2 SLP100 P0000 T10111022 FZRANO

Aika: 07:00 (15:00 UTC)


TAF: puuttuu

Säähavainnot ja -ennusteet yli 4000 lentoasemalta (METAR- ja TAF-raportit).

Käytössä olevat sääasemat on merkitty karttaan keltaisilla ja punaisilla pisteillä.

Aseta hiiri pisteen päälle nähdäksesi sääaseman nimen.

Klikkaa sitten nähdäksesi säähavainnot ja -ennusteet.

Kartan vaihtaminen: klikkaa mustalla rastilla varustettuja vihreitä pisteitä, niin voit zoomata sisään; viivalla varustettua vihreää pistettä, niin voit zoomata ulos tai vihreitä nuolia, niin pääset viereisille kartoille.


METAR-TAF: